»·PEaware :: N9298L KRNO-KRNO

N9298L :: KRNO-KRNO

FLIGHT INFORMATION

Flight Status: Arrived
Operator: Privately registered:
United States
More flights under this callsign
Pilot: Brendan O. (14500)
Aircraft: PIPER PA-32 SARATOGA
(PA32)
More flights by this aircraft type
Origin: KRNO Reno/Tahoe Intl
United States
Destination: KRNO Reno/Tahoe Intl
United States
More flights between these airports :: More routes between these airports
Route: +WAGGE6 FMG
File this flight plan on PilotEdge
Remarks: round robin
Altitude:
(Current/Filed)
10,000ft
Speed:
(Current/Filed)
145kts
Departed: 18-Jan-18 09:53 AM
Arrived: 18-Jan-18 10:22 AM
Distance/Time
Traveled:
0nm/0:29
Distance/Time
To Go:
Arrived

Flight Plot

Page will automatically refresh every two minutes.


Map Options




Map Legend


Flown Route
Filed Route
Departure Airport
Arrival Airport
Navaid (VOR, NDB)
Fix

Horizontal Profiles

Position Reports

Time Latitude Longitude Heading Altitude Ground
Speed
18-Jan-18 09:45 39.501694 -119.764542 270 4402ft 0kts
18-Jan-18 09:46 39.501694 -119.764542 270 4402ft 0kts
18-Jan-18 09:47 39.501694 -119.764542 270 4402ft 0kts
18-Jan-18 09:48 39.501697 -119.764556 251 4402ft 0kts
18-Jan-18 09:49 39.501697 -119.764564 242 4402ft 0kts
18-Jan-18 09:50 39.501697 -119.764564 242 4402ft 0kts
18-Jan-18 09:51 39.501697 -119.764564 242 4402ft 0kts
18-Jan-18 09:52 39.501697 -119.764564 242 4402ft 0kts
18-Jan-18 09:53 39.501648 -119.764872 259 4401ft 6kts
18-Jan-18 09:54 39.505645 -119.765778 358 4403ft 20kts
18-Jan-18 09:55 39.510309 -119.765545 57 4408ft 10kts
18-Jan-18 09:56 39.513480 -119.765166 345 4412ft 16kts
18-Jan-18 09:57 39.513728 -119.765609 266 4412ft 0kts
18-Jan-18 09:58 39.513723 -119.765900 269 4412ft 7kts
18-Jan-18 09:59 39.507265 -119.766730 186 4484ft 80kts
18-Jan-18 10:00 39.494992 -119.765891 193 5184ft 64kts
18-Jan-18 10:01 39.494992 -119.765891 193 5184ft 64kts
18-Jan-18 10:02 39.494992 -119.765891 193 5184ft 64kts
18-Jan-18 10:03 39.492097 -119.765800 187 5304ft 67kts
18-Jan-18 10:04 39.474191 -119.767116 189 6260ft 70kts
18-Jan-18 10:05 39.456563 -119.769291 199 7280ft 69kts
18-Jan-18 10:06 39.439931 -119.765808 192 8319ft 86kts
18-Jan-18 10:07 39.428337 -119.759843 125 8815ft 116kts
18-Jan-18 10:08 39.440835 -119.733980 32 9653ft 142kts
18-Jan-18 10:09 39.476249 -119.702943 32 10086ft 165kts
18-Jan-18 10:10 39.517902 -119.669483 33 10038ft 185kts
18-Jan-18 10:11 39.566320 -119.659487 343 10006ft 178kts
18-Jan-18 10:12 39.616589 -119.666521 350 10104ft 180kts
18-Jan-18 10:13 39.667377 -119.674432 2 10050ft 186kts
18-Jan-18 10:14 39.720415 -119.662740 6 9635ft 197kts
18-Jan-18 10:15 39.774611 -119.658719 15 9006ft 196kts
18-Jan-18 10:16 39.823099 -119.656486 320 9245ft 154kts
18-Jan-18 10:17 39.828768 -119.707841 272 8888ft 163kts
18-Jan-18 10:18 39.822354 -119.761740 190 8325ft 160kts
18-Jan-18 10:19 39.782164 -119.769199 179 8409ft 144kts
18-Jan-18 10:20 39.741227 -119.765606 180 8089ft 158kts
18-Jan-18 10:21 39.698007 -119.769264 186 7578ft 148kts
18-Jan-18 10:22 39.658899 -119.768046 194 7528ft 131kts
18-Jan-18 10:23 39.622678 -119.768135 187 7021ft 115kts
18-Jan-18 10:24 39.590929 -119.767662 177 6169ft 109kts
18-Jan-18 10:25 39.561433 -119.769341 177 5542ft 110kts
18-Jan-18 10:26 39.531611 -119.768579 175 5274ft 109kts
18-Jan-18 10:27 39.505020 -119.766557 186 4401ft 59kts
18-Jan-18 10:28 39.502097 -119.765785 181 4402ft 10kts
18-Jan-18 10:29 39.501765 -119.764569 315 4402ft 0kts
18-Jan-18 10:30 39.501782 -119.764589 313 4402ft 0kts
18-Jan-18 10:31 39.501782 -119.764589 313 4402ft 0kts
18-Jan-18 10:32 39.501782 -119.764589 313 4402ft 0kts
18-Jan-18 10:33 39.501782 -119.764589 313 4402ft 0kts
18-Jan-18 10:34 39.501782 -119.764589 313 4402ft 0kts
18-Jan-18 10:35 39.501782 -119.764589 313 4402ft 0kts
18-Jan-18 10:36 39.501782 -119.764589 313 4402ft 0kts
18-Jan-18 10:37 39.501782 -119.764589 313 4402ft 0kts
18-Jan-18 10:38 39.501782 -119.764589 313 4402ft 0kts
18-Jan-18 10:39 39.501782 -119.764589 313 4402ft 0kts
18-Jan-18 10:40 39.501782 -119.764589 313 4402ft 0kts
18-Jan-18 10:41 39.501782 -119.764589 313 4402ft 0kts
18-Jan-18 10:42 39.501782 -119.764589 313 4402ft 0kts

Navigation Log

Ident Type
Flight plan parsing failed, navigation log unavailable